Latest Weather Observations for Point Wilson

IDV60801

Issued at 4:31 pm EST Tuesday 28 April 2015 (issued every 30 minutes, with the page automatically refreshed every 10 minutes)

About weather observations | Map of weather stations | Latest weather observations for VIC | Other Formats
Station Details ID: 087166 Name: POINT WILSON Lat: -38.10 Lon: 144.54 Height: 18.0 m
Data from the previous 72 hours. | See also: Recent months at Point Wilson
Date/Time
EST
Temp
°C
App
Temp
°C
Dew
Point
Rel
Hum
%
Delta-T
°C
Wind Press
QNH
hPa
Press
MSL
hPa
Rain
since 9 am
mm
Dir
 
Spd
km/h
Gust
km/h
Spd
kts
Gust
kts
28/04:30pm - - - - - SSW 26 30 14 16 - - -
28/04:00pm - - - - - S 28 33 15 18 - - -
28/03:30pm - - - - - SSW 28 32 15 17 - - -
28/03:00pm - - - - - S 30 32 16 17 - - -
28/02:30pm - - - - - SSW 30 33 16 18 - - -
28/02:00pm - - - - - S 30 33 16 18 - - -
28/01:30pm - - - - - S 28 32 15 17 - - -
28/01:00pm - - - - - S 26 32 14 17 - - -
28/12:30pm - - - - - SSW 22 28 12 15 - - -
28/12:00pm - - - - - SSW 22 28 12 15 - - -
28/11:30am - - - - - SSW 20 22 11 12 - - -
28/11:00am - - - - - SSW 24 26 13 14 - - -
28/10:30am - - - - - SSW 19 20 10 11 - - -
28/10:00am - - - - - SSW 19 22 10 12 - - -
28/09:30am - - - - - SSW 17 19 9 10 - - -
28/09:00am - - - - - S 13 17 7 9 - - -
28/08:30am - - - - - SW 19 20 10 11 - - -
28/08:00am - - - - - WSW 22 26 12 14 - - -
28/07:30am - - - - - WSW 19 24 10 13 - - -
28/07:00am - - - - - WSW 19 22 10 12 - - -
28/06:30am - - - - - WSW 19 22 10 12 - - -
28/06:00am - - - - - WSW 19 22 10 12 - - -
28/05:30am - - - - - W 20 24 11 13 - - -
28/05:00am - - - - - WSW 20 28 11 15 - - -
28/04:30am - - - - - WSW 20 24 11 13 - - -
28/04:00am - - - - - W 17 22 9 12 - - -
28/03:30am - - - - - W 22 26 12 14 - - -
28/03:00am - - - - - WNW 19 22 10 12 - - -
28/02:30am - - - - - WNW 17 19 9 10 - - -
28/02:00am - - - - - W 20 26 11 14 - - -
28/01:30am - - - - - W 22 26 12 14 - - -
28/01:00am - - - - - WSW 19 20 10 11 - - -
28/12:30am - - - - - WSW 20 24 11 13 - - -
28/12:00am - - - - - W 20 28 11 15 - - -
 
Date/Time
EST
Temp
°C
App
Temp
°C
Dew
Point
Rel
Hum
%
Delta-T
°C
Wind Press
QNH
hPa
Press
MSL
hPa
Rain
since 9 am
mm
Dir
 
Spd
km/h
Gust
km/h
Spd
kts
Gust
kts
27/11:30pm - - - - - WSW 22 30 12 16 - - -
27/11:00pm - - - - - W 20 24 11 13 - - -
27/10:30pm - - - - - WSW 20 24 11 13 - - -
27/10:00pm - - - - - SW 24 30 13 16 - - -
27/09:30pm - - - - - SW 20 28 11 15 - - -
27/09:00pm - - - - - SW 19 24 10 13 - - -
27/08:30pm - - - - - SW 22 28 12 15 - - -
27/08:00pm - - - - - SW 22 26 12 14 - - -
27/07:30pm - - - - - WSW 19 20 10 11 - - -
27/07:00pm - - - - - SW 24 30 13 16 - - -
27/06:30pm - - - - - SW 26 30 14 16 - - -
27/06:00pm - - - - - SW 26 32 14 17 - - -
27/05:30pm - - - - - SSW 28 32 15 17 - - -
27/05:00pm - - - - - SSW 33 37 18 20 - - -
27/04:30pm - - - - - SW 30 35 16 19 - - -
27/04:00pm - - - - - SSW 28 32 15 17 - - -
27/03:30pm - - - - - SSW 32 37 17 20 - - -
27/03:00pm - - - - - SSW 28 33 15 18 - - -
27/02:30pm - - - - - SSW 26 30 14 16 - - -
27/02:00pm - - - - - SW 28 33 15 18 - - -
27/01:30pm - - - - - SSW 22 30 12 16 - - -
27/01:00pm - - - - - WSW 20 24 11 13 - - -
27/12:30pm - - - - - SW 28 35 15 19 - - -
27/12:00pm - - - - - SW 24 26 13 14 - - -
27/11:30am - - - - - WSW 19 24 10 13 - - -
27/11:00am - - - - - WSW 22 28 12 15 - - -
27/10:30am - - - - - W 24 28 13 15 - - -
27/10:00am - - - - - W 22 28 12 15 - - -
27/09:30am - - - - - W 28 32 15 17 - - -
27/09:00am - - - - - W 33 39 18 21 - - -
27/08:30am - - - - - W 33 39 18 21 - - -
27/08:00am - - - - - W 30 35 16 19 - - -
27/07:30am - - - - - W 30 35 16 19 - - -
27/07:00am - - - - - W 30 37 16 20 - - -
27/06:30am - - - - - W 33 37 18 20 - - -
27/06:00am - - - - - W 30 33 16 18 - - -
27/05:30am - - - - - W 33 37 18 20 - - -
27/05:00am - - - - - W 32 35 17 19 - - -
27/04:30am - - - - - W 32 37 17 20 - - -
27/04:00am - - - - - W 33 39 18 21 - - -
27/03:30am - - - - - W 32 37 17 20 - - -
27/03:00am - - - - - W 33 43 18 23 - - -
27/02:30am - - - - - W 33 39 18 21 - - -
27/02:00am - - - - - W 33 41 18 22 - - -
27/01:30am - - - - - W 37 44 20 24 - - -
27/01:00am - - - - - W 35 43 19 23 - - -
27/12:30am - - - - - W 32 39 17 21 - - -
27/12:00am - - - - - W 35 41 19 22 - - -
 
Date/Time
EST
Temp
°C
App
Temp
°C
Dew
Point
Rel
Hum
%
Delta-T
°C
Wind Press
QNH
hPa
Press
MSL
hPa
Rain
since 9 am
mm
Dir
 
Spd
km/h
Gust
km/h
Spd
kts
Gust
kts
26/11:30pm - - - - - W 35 43 19 23 - - -
26/11:00pm - - - - - W 32 37 17 20 - - -
26/10:30pm - - - - - W 32 37 17 20 - - -
26/10:00pm - - - - - W 32 39 17 21 - - -
26/09:30pm - - - - - W 32 35 17 19 - - -
26/09:00pm - - - - - WSW 30 37 16 20 - - -
26/08:30pm - - - - - W 30 37 16 20 - - -
26/08:00pm - - - - - WSW 32 39 17 21 - - -
26/07:30pm - - - - - W 33 41 18 22 - - -
26/07:00pm - - - - - W 33 41 18 22 - - -
26/06:30pm - - - - - WSW 30 39 16 21 - - -
26/06:00pm - - - - - WSW 32 35 17 19 - - -
26/05:30pm - - - - - WSW 30 37 16 20 - - -
26/05:00pm - - - - - WSW 30 35 16 19 - - -
26/04:30pm - - - - - SW 30 35 16 19 - - -
26/04:00pm - - - - - SW 33 39 18 21 - - -
26/03:30pm - - - - - SW 33 41 18 22 - - -
26/03:00pm - - - - - SW 33 39 18 21 - - -
26/02:30pm - - - - - SSW 37 41 20 22 - - -
26/02:00pm - - - - - SW 30 35 16 19 - - -
26/01:30pm - - - - - SW 33 39 18 21 - - -
26/01:00pm - - - - - SSW 30 35 16 19 - - -
26/12:30pm - - - - - SSW 17 22 9 12 - - -
26/12:00pm - - - - - SW 35 41 19 22 - - -
26/11:30am - - - - - WSW 30 35 16 19 - - -
26/11:00am - - - - - WSW 28 35 15 19 - - -
26/10:30am - - - - - WSW 30 35 16 19 - - -
26/10:00am - - - - - SW 30 35 16 19 - - -
26/09:30am - - - - - WSW 26 35 14 19 - - -
26/09:00am - - - - - W 30 35 16 19 - - -
26/08:30am - - - - - WSW 28 32 15 17 - - -
26/08:00am - - - - - W 28 33 15 18 - - -
26/07:30am - - - - - WSW 32 37 17 20 - - -
26/07:00am - - - - - WSW 30 35 16 19 - - -
26/06:30am - - - - - SW 28 32 15 17 - - -
26/06:00am - - - - - WSW 37 44 20 24 - - -
26/05:30am - - - - - WSW 32 37 17 20 - - -
26/05:00am - - - - - WSW 32 39 17 21 - - -
26/04:30am - - - - - WSW 22 30 12 16 - - -
26/04:00am - - - - - WSW 30 35 16 19 - - -
26/03:30am - - - - - WSW 30 35 16 19 - - -
26/03:00am - - - - - WSW 24 33 13 18 - - -
26/02:30am - - - - - SW 33 43 18 23 - - -
26/02:00am - - - - - SW 32 41 17 22 - - -
26/01:30am - - - - - WSW 26 33 14 18 - - -
26/01:00am - - - - - WSW 24 30 13 16 - - -
26/12:30am - - - - - SSW 28 35 15 19 - - -
26/12:00am - - - - - SSW 30 37 16 20 - - -
 
Date/Time
EST
Temp
°C
App
Temp
°C
Dew
Point
Rel
Hum
%
Delta-T
°C
Wind Press
QNH
hPa
Press
MSL
hPa
Rain
since 9 am
mm
Dir
 
Spd
km/h
Gust
km/h
Spd
kts
Gust
kts
25/11:30pm - - - - - SW 32 35 17 19 - - -
25/11:00pm - - - - - SW 35 43 19 23 - - -
25/10:30pm - - - - - SW 33 39 18 21 - - -
25/10:00pm - - - - - SW 35 43 19 23 - - -
25/09:30pm - - - - - SSW 33 39 18 21 - - -
25/09:00pm - - - - - SSW 33 39 18 21 - - -
25/08:30pm - - - - - SSW 37 44 20 24 - - -
25/08:00pm - - - - - SSW 41 46 22 25 - - -
25/07:30pm - - - - - SSW 39 46 21 25 - - -
25/07:00pm - - - - - SSW 41 48 22 26 - - -
25/06:30pm - - - - - SSW 37 43 20 23 - - -
25/06:00pm - - - - - SSW 37 48 20 26 - - -
25/05:30pm - - - - - SSW 35 44 19 24 - - -
25/05:00pm - - - - - SSW 35 41 19 22 - - -

Other Formats:

Comma delimited format used in spreadsheet applications
http://www.bom.gov.au/fwo/IDV60801/IDV60801.94847.axf

JavaScript Object Notation format (JSON) in row-major order
http://www.bom.gov.au/fwo/IDV60801/IDV60801.94847.json